createdAt,value
2018-03-30T00:00:03.218Z,7.83
2018-03-30T00:02:30.066Z,5.13
2018-03-30T00:04:56.912Z,5.87
2018-03-30T00:07:23.866Z,4.77
2018-03-30T00:09:55.820Z,4.77
2018-03-30T00:12:22.597Z,4.43
2018-03-30T00:14:50.330Z,4.50
2018-03-30T00:17:17.377Z,2.40
2018-03-30T00:19:44.328Z,6.17
2018-03-30T00:22:11.172Z,4.53
2018-03-30T00:24:38.226Z,5.40
2018-03-30T00:27:05.268Z,6.13
2018-03-30T00:29:32.116Z,5.10
2018-03-30T00:31:59.168Z,5.30
2018-03-30T00:34:26.119Z,7.57
2018-03-30T00:36:53.056Z,5.97
2018-03-30T00:39:20.108Z,6.10
2018-03-30T00:41:47.164Z,5.07
2018-03-30T00:44:14.207Z,4.43
2018-03-30T00:46:41.254Z,5.87
2018-03-30T00:49:08.312Z,7.23
2018-03-30T00:51:35.132Z,5.63
2018-03-30T00:54:02.095Z,9.33
2018-03-30T00:56:28.939Z,6.07
2018-03-30T00:58:56.304Z,10.53
2018-03-30T01:01:23.290Z,5.10
2018-03-30T01:03:50.395Z,4.30
2018-03-30T01:06:17.454Z,4.40
2018-03-30T01:08:45.220Z,4.43
2018-03-30T01:11:12.268Z,5.13
2018-03-30T01:13:39.312Z,6.17
2018-03-30T01:16:06.369Z,5.73
2018-03-30T01:18:33.412Z,4.30
2018-03-30T01:21:00.459Z,4.00
2018-03-30T01:23:27.517Z,6.87
2018-03-30T01:25:54.563Z,6.43
2018-03-30T01:28:21.605Z,5.87
2018-03-30T01:30:48.664Z,4.43
2018-03-30T01:33:15.602Z,4.00
2018-03-30T01:35:42.558Z,4.70
2018-03-30T01:38:09.608Z,2.87
2018-03-30T01:40:36.649Z,4.63
2018-03-30T01:43:03.709Z,5.47
2018-03-30T01:45:30.750Z,4.97
2018-03-30T01:47:57.514Z,5.20
2018-03-30T01:50:25.257Z,4.50
2018-03-30T01:52:52.206Z,6.30
2018-03-30T01:55:19.250Z,6.20
2018-03-30T01:57:46.303Z,5.03
2018-03-30T02:00:13.253Z,6.17
2018-03-30T02:02:40.311Z,5.60
2018-03-30T02:05:07.247Z,7.90
2018-03-30T02:07:34.294Z,4.97
2018-03-30T02:10:01.353Z,9.27
2018-03-30T02:12:28.187Z,4.33
2018-03-30T02:14:55.238Z,6.97
2018-03-30T02:17:22.194Z,4.87
2018-03-30T02:19:49.130Z,6.37
2018-03-30T02:22:16.180Z,5.37
2018-03-30T02:24:43.137Z,6.27
2018-03-30T02:27:10.180Z,8.43
2018-03-30T02:29:37.123Z,5.07
2018-03-30T02:32:04.175Z,4.70
2018-03-30T02:34:31.232Z,5.27
2018-03-30T02:36:58.046Z,4.80
2018-03-30T02:39:25.027Z,8.33
2018-03-30T02:41:52.067Z,6.03
2018-03-30T02:44:19.027Z,5.83
2018-03-30T02:46:46.780Z,5.93
2018-03-30T02:49:13.726Z,6.87
2018-03-30T02:51:40.551Z,4.30
2018-03-30T02:54:07.629Z,6.87
2018-03-30T02:56:34.575Z,4.67
2018-03-30T02:59:01.627Z,4.93
2018-03-30T03:01:29.288Z,5.43
2018-03-30T03:03:57.643Z,5.67
2018-03-30T03:06:24.478Z,6.73
2018-03-30T03:08:51.552Z,5.90
2018-03-30T03:11:18.604Z,5.07
2018-03-30T03:13:45.344Z,4.70
2018-03-30T03:16:12.294Z,5.60
2018-03-30T03:18:39.350Z,5.37
2018-03-30T03:21:06.297Z,4.87
2018-03-30T03:23:33.247Z,3.47
2018-03-30T03:26:00.294Z,3.93
2018-03-30T03:28:27.233Z,5.77
2018-03-30T03:30:54.293Z,4.37
2018-03-30T03:33:21.333Z,5.17
2018-03-30T03:35:48.178Z,5.43
2018-03-30T03:38:15.140Z,4.70
2018-03-30T03:40:42.789Z,4.33
2018-03-30T03:43:09.742Z,3.97
2018-03-30T03:45:36.578Z,6.57
2018-03-30T03:48:03.624Z,7.50
2018-03-30T03:50:30.780Z,5.47
2018-03-30T03:52:57.837Z,10.53
2018-03-30T03:55:24.879Z,6.40
2018-03-30T03:57:51.936Z,5.23
2018-03-30T04:00:19.486Z,5.17
2018-03-30T04:02:46.445Z,5.60
2018-03-30T04:05:13.279Z,5.20
2018-03-30T04:07:40.205Z,6.33
2018-03-30T04:10:07.172Z,4.27
2018-03-30T04:12:34.122Z,5.23
2018-03-30T04:15:01.067Z,6.83
2018-03-30T04:17:27.871Z,5.37
2018-03-30T04:19:54.970Z,5.83
2018-03-30T04:22:36.773Z,6.07
2018-03-30T04:25:03.707Z,8.13
2018-03-30T04:27:30.871Z,7.23
2018-03-30T04:29:57.802Z,7.30
2018-03-30T04:32:24.616Z,4.47
2018-03-30T04:34:51.603Z,4.57
2018-03-30T04:37:18.437Z,6.33
2018-03-30T04:39:46.214Z,6.47
2018-03-30T04:42:13.154Z,5.27
2018-03-30T04:44:40.012Z,7.27
2018-03-30T04:47:06.957Z,7.27
2018-03-30T04:49:34.008Z,7.23
2018-03-30T04:52:02.373Z,6.50
2018-03-30T04:54:29.431Z,5.87
2018-03-30T04:56:56.284Z,7.03
2018-03-30T04:59:23.324Z,6.53
2018-03-30T05:01:50.089Z,5.37
2018-03-30T05:04:18.541Z,5.53
2018-03-30T05:06:45.490Z,7.50
2018-03-30T05:09:12.382Z,5.80
2018-03-30T05:11:40.005Z,7.33
2018-03-30T05:14:06.946Z,4.37
2018-03-30T05:16:34.024Z,6.80
2018-03-30T05:19:01.871Z,6.50
2018-03-30T05:21:28.921Z,7.60
2018-03-30T05:23:57.206Z,7.57
2018-03-30T05:26:25.676Z,5.27
2018-03-30T05:28:52.781Z,4.97
2018-03-30T05:31:20.368Z,6.33
2018-03-30T05:33:47.336Z,5.13
2018-03-30T05:36:14.392Z,5.70
2018-03-30T05:38:41.229Z,5.80
2018-03-30T05:41:08.287Z,5.20
2018-03-30T05:43:35.328Z,6.93
2018-03-30T05:46:02.385Z,6.93
2018-03-30T05:48:29.441Z,7.87
2018-03-30T05:50:56.414Z,4.40
2018-03-30T05:53:24.038Z,4.03
2018-03-30T05:55:50.984Z,7.10
2018-03-30T05:58:18.031Z,6.93
2018-03-30T06:00:45.288Z,6.77
2018-03-30T06:03:12.236Z,5.10
2018-03-30T06:05:39.285Z,8.67
2018-03-30T06:08:06.250Z,6.70
2018-03-30T06:10:33.998Z,7.83
2018-03-30T06:13:01.057Z,4.63
2018-03-30T06:15:28.096Z,6.57
2018-03-30T06:17:55.046Z,5.47
2018-03-30T06:20:22.305Z,7.33
2018-03-30T06:22:49.345Z,4.83
2018-03-30T06:25:16.189Z,11.23
2018-03-30T06:27:43.139Z,8.27
2018-03-30T06:30:09.960Z,13.13
2018-03-30T06:32:37.033Z,13.30
2018-03-30T06:35:04.084Z,15.60
2018-03-30T06:37:31.132Z,15.87
2018-03-30T06:39:58.076Z,12.40
2018-03-30T06:42:25.135Z,13.03
2018-03-30T06:44:52.074Z,9.80
2018-03-30T06:47:19.132Z,9.87
2018-03-30T06:49:46.893Z,10.50
2018-03-30T06:52:13.838Z,9.07
2018-03-30T06:54:40.783Z,9.83
2018-03-30T06:57:07.844Z,8.77
2018-03-30T06:59:34.788Z,12.80
2018-03-30T07:02:01.729Z,12.87
2018-03-30T07:04:28.783Z,9.43
2018-03-30T07:06:55.825Z,9.23
2018-03-30T07:09:22.774Z,8.27
2018-03-30T07:11:49.920Z,6.70
2018-03-30T07:14:23.341Z,6.67
2018-03-30T07:16:50.958Z,6.60
2018-03-30T07:19:17.945Z,7.90
2018-03-30T07:21:44.878Z,7.53
2018-03-30T07:24:11.831Z,6.37
2018-03-30T07:26:38.879Z,8.43
2018-03-30T07:29:05.844Z,8.07
2018-03-30T07:31:32.675Z,9.27
2018-03-30T07:33:59.728Z,9.33
2018-03-30T07:36:26.478Z,7.17
2018-03-30T07:38:53.409Z,8.47
2018-03-30T07:41:20.466Z,12.50
2018-03-30T07:43:47.402Z,13.07
2018-03-30T07:46:14.248Z,11.10
2018-03-30T07:48:41.204Z,6.23
2018-03-30T07:51:08.243Z,12.07
2018-03-30T07:53:35.293Z,8.47
2018-03-30T07:56:02.245Z,9.80
2018-03-30T07:58:29.187Z,8.93
2018-03-30T08:00:56.247Z,9.57
2018-03-30T08:03:23.289Z,9.13
2018-03-30T08:05:50.339Z,6.73
2018-03-30T08:08:17.287Z,15.63
2018-03-30T08:10:44.101Z,17.03
2018-03-30T08:13:11.076Z,19.43
2018-03-30T08:15:38.021Z,20.87
2018-03-30T08:18:05.080Z,15.50
2018-03-30T08:20:32.131Z,11.20
2018-03-30T08:22:59.198Z,12.47
2018-03-30T08:25:26.938Z,11.37
2018-03-30T08:27:53.996Z,12.03
2018-03-30T08:30:21.035Z,11.00
2018-03-30T08:32:47.882Z,8.23
2018-03-30T08:35:14.931Z,9.87
2018-03-30T08:37:41.981Z,8.57
2018-03-30T08:40:09.036Z,10.10
2018-03-30T08:42:35.754Z,8.97
2018-03-30T08:45:02.834Z,11.57
2018-03-30T08:47:29.871Z,13.00
2018-03-30T08:49:56.927Z,9.03
2018-03-30T08:52:23.864Z,6.67
2018-03-30T08:54:50.924Z,10.20
2018-03-30T08:57:17.973Z,9.97
2018-03-30T08:59:45.022Z,8.70
2018-03-30T09:02:12.101Z,11.93
2018-03-30T09:04:39.807Z,11.33
2018-03-30T09:07:06.877Z,11.40
2018-03-30T09:09:34.732Z,8.67
2018-03-30T09:12:02.573Z,14.43
2018-03-30T09:14:43.381Z,13.23
2018-03-30T09:17:10.334Z,13.03
2018-03-30T09:19:37.384Z,8.80
2018-03-30T09:22:04.440Z,7.27
2018-03-30T09:24:31.280Z,10.70
2018-03-30T09:26:58.226Z,10.03
2018-03-30T09:29:25.308Z,9.90
2018-03-30T09:31:53.041Z,8.77
2018-03-30T09:34:20.101Z,10.17
2018-03-30T09:36:47.146Z,8.10
2018-03-30T09:39:14.085Z,9.53
2018-03-30T09:41:41.134Z,13.93
2018-03-30T09:44:08.183Z,10.77
2018-03-30T09:46:35.244Z,9.13
2018-03-30T09:49:02.179Z,8.47
2018-03-30T09:51:29.233Z,8.77
2018-03-30T09:53:57.508Z,12.23
2018-03-30T09:56:24.560Z,10.17
2018-03-30T09:58:51.607Z,8.87
2018-03-30T10:01:18.665Z,11.57
2018-03-30T10:03:48.583Z,8.93
2018-03-30T10:06:15.623Z,8.50
2018-03-30T10:08:42.681Z,9.60
2018-03-30T10:11:09.721Z,10.87
2018-03-30T10:13:36.771Z,8.37
2018-03-30T10:16:04.024Z,9.37
2018-03-30T10:18:31.086Z,8.33
2018-03-30T10:20:58.123Z,7.77
2018-03-30T10:23:25.175Z,9.90
2018-03-30T10:25:52.029Z,8.87
2018-03-30T10:28:19.076Z,7.60
2018-03-30T10:30:46.025Z,10.77
2018-03-30T10:33:13.072Z,6.47
2018-03-30T10:35:40.112Z,10.40
2018-03-30T10:38:06.958Z,7.40
2018-03-30T10:40:33.919Z,8.10
2018-03-30T10:43:01.670Z,10.47
2018-03-30T10:45:29.030Z,12.60
2018-03-30T10:47:55.872Z,7.80
2018-03-30T10:50:22.902Z,9.50
2018-03-30T10:52:49.869Z,7.70
2018-03-30T10:55:16.820Z,8.83
2018-03-30T10:57:43.874Z,10.83
2018-03-30T11:00:10.933Z,12.13
2018-03-30T11:02:37.864Z,10.77
2018-03-30T11:05:04.807Z,6.57
2018-03-30T11:07:31.634Z,11.83
2018-03-30T11:09:58.609Z,8.97
2018-03-30T11:12:25.652Z,11.60
2018-03-30T11:15:26.317Z,8.40
2018-03-30T11:17:54.062Z,8.33
2018-03-30T11:20:21.104Z,6.07
2018-03-30T11:22:48.060Z,7.80
2018-03-30T11:25:15.005Z,5.83
2018-03-30T11:27:41.841Z,7.13
2018-03-30T11:30:08.899Z,8.43
2018-03-30T11:32:35.812Z,6.23
2018-03-30T11:35:02.727Z,6.17
2018-03-30T11:37:29.844Z,8.10
2018-03-30T11:39:56.885Z,8.37
2018-03-30T11:42:23.710Z,10.63
2018-03-30T11:44:50.797Z,10.23
2018-03-30T11:47:17.844Z,12.37
2018-03-30T11:49:44.898Z,10.03
2018-03-30T11:52:11.870Z,7.37
2018-03-30T11:54:39.717Z,9.23
2018-03-30T12:00:04.981Z,6.83
2018-03-30T12:02:50.242Z,8.70
2018-03-30T12:05:28.152Z,11.90
2018-03-30T12:08:01.250Z,9.10
2018-03-30T12:10:42.052Z,5.60
2018-03-30T12:13:20.085Z,7.60
2018-03-30T12:18:47.846Z,8.83
2018-03-30T12:21:15.574Z,5.83
2018-03-30T12:23:43.746Z,6.40
2018-03-30T12:26:11.701Z,9.27
2018-03-30T12:28:39.703Z,5.33
2018-03-30T12:31:07.651Z,8.80
2018-03-30T12:33:35.466Z,10.00
2018-03-30T12:36:03.803Z,10.30
2018-03-30T12:38:31.968Z,9.60
2018-03-30T12:40:59.976Z,7.57
2018-03-30T12:43:27.306Z,5.33
2018-03-30T12:45:55.269Z,6.80
2018-03-30T12:48:22.733Z,6.73
2018-03-30T12:50:51.015Z,6.23
2018-03-30T12:53:19.506Z,7.17
2018-03-30T12:55:47.768Z,6.00
2018-03-30T12:58:15.950Z,10.03
2018-03-30T13:00:43.724Z,7.50
2018-03-30T13:03:12.035Z,9.43
2018-03-30T13:05:39.905Z,6.80
2018-03-30T13:08:07.015Z,11.20
2018-03-30T13:10:34.830Z,7.03
2018-03-30T13:13:02.064Z,7.70
2018-03-30T13:16:01.968Z,7.33
2018-03-30T13:18:29.895Z,6.60
2018-03-30T13:20:56.873Z,8.30
2018-03-30T13:23:24.778Z,6.17
2018-03-30T13:25:51.835Z,11.07
2018-03-30T13:28:18.785Z,10.90
2018-03-30T13:30:45.958Z,7.50
2018-03-30T13:33:12.961Z,4.90
2018-03-30T13:35:39.988Z,8.13
2018-03-30T13:38:07.847Z,7.00
2018-03-30T13:40:35.729Z,7.37
2018-03-30T13:43:03.513Z,7.83
2018-03-30T13:45:30.484Z,10.47
2018-03-30T13:47:57.896Z,9.03
2018-03-30T13:50:26.363Z,9.87
2018-03-30T13:52:59.353Z,11.70
2018-03-30T13:55:32.871Z,7.17
2018-03-30T13:58:30.233Z,8.67
2018-03-30T14:00:59.943Z,8.27
2018-03-30T14:03:34.573Z,9.67
2018-03-30T14:06:26.207Z,6.60
2018-03-30T14:08:55.123Z,7.80
2018-03-30T14:11:30.035Z,4.70
2018-03-30T14:13:58.936Z,7.97
2018-03-30T14:16:26.950Z,6.67
2018-03-30T14:19:05.244Z,6.63
2018-03-30T14:21:37.300Z,6.23
2018-03-30T14:24:08.380Z,6.67
2018-03-30T14:26:48.429Z,8.07
2018-03-30T14:29:26.621Z,7.50
2018-03-30T14:32:05.472Z,6.37
2018-03-30T14:34:35.552Z,9.47
2018-03-30T14:37:09.607Z,4.60
2018-03-30T14:42:32.411Z,6.53
2018-03-30T14:45:07.343Z,9.10
2018-03-30T14:47:36.338Z,6.80
2018-03-30T14:50:16.613Z,8.63
2018-03-30T14:52:50.105Z,7.33
2018-03-30T14:55:20.001Z,5.67
2018-03-30T14:57:54.132Z,6.93
2018-03-30T15:00:24.856Z,7.30
2018-03-30T15:02:56.116Z,20.90
2018-03-30T15:05:47.033Z,10.23
2018-03-30T15:08:33.782Z,7.60
2018-03-30T15:11:19.322Z,10.57
2018-03-30T15:13:50.279Z,8.23
2018-03-30T15:19:36.383Z,7.00
2018-03-30T15:22:08.283Z,7.93
2018-03-30T15:24:37.537Z,7.63
2018-03-30T15:27:09.809Z,11.40
2018-03-30T15:29:43.831Z,8.33
2018-03-30T15:35:12.148Z,7.00
2018-03-30T15:37:40.657Z,10.47
2018-03-30T15:40:14.852Z,8.10
2018-03-30T15:42:43.811Z,6.97
2018-03-30T15:45:11.885Z,6.17
2018-03-30T15:47:39.255Z,6.03
2018-03-30T15:50:07.232Z,8.13
2018-03-30T15:52:36.640Z,5.50
2018-03-30T15:55:05.117Z,10.00
2018-03-30T15:57:33.074Z,12.03
2018-03-30T16:00:08.115Z,10.27
2018-03-30T16:02:36.406Z,7.73
2018-03-30T16:05:04.679Z,7.20
2018-03-30T16:07:32.553Z,6.47
2018-03-30T16:12:57.810Z,5.27
2018-03-30T16:18:55.049Z,6.97
2018-03-30T16:21:22.118Z,5.77
2018-03-30T16:23:50.195Z,6.07
2018-03-30T16:26:18.562Z,7.50
2018-03-30T16:28:46.112Z,7.47
2018-03-30T16:31:13.168Z,5.60
2018-03-30T16:33:40.833Z,8.97
2018-03-30T16:36:08.804Z,8.23
2018-03-30T16:38:36.410Z,5.60
2018-03-30T16:41:04.244Z,4.40
2018-03-30T16:43:31.861Z,7.90
2018-03-30T16:45:58.714Z,10.77
2018-03-30T16:48:26.831Z,6.73
2018-03-30T16:50:54.897Z,8.30
2018-03-30T16:53:22.581Z,7.93
2018-03-30T16:55:49.428Z,8.90
2018-03-30T16:58:16.197Z,8.30
2018-03-30T17:00:43.060Z,10.23
2018-03-30T17:03:09.918Z,9.37
2018-03-30T17:05:36.746Z,5.70
2018-03-30T17:08:03.591Z,12.53
2018-03-30T17:10:30.749Z,9.07
2018-03-30T17:12:57.588Z,7.50
2018-03-30T17:15:51.857Z,10.67
2018-03-30T17:18:18.920Z,8.60
2018-03-30T17:20:45.847Z,9.83
2018-03-30T17:23:12.715Z,7.30
2018-03-30T17:25:39.577Z,8.27
2018-03-30T17:28:07.384Z,8.80
2018-03-30T17:30:34.177Z,8.50
2018-03-30T17:33:01.061Z,10.10
2018-03-30T17:35:29.341Z,11.00
2018-03-30T17:37:57.937Z,9.37
2018-03-30T17:40:24.967Z,8.60
2018-03-30T17:42:52.691Z,14.13
2018-03-30T17:45:19.533Z,18.90
2018-03-30T17:47:46.460Z,22.27
2018-03-30T17:50:13.341Z,17.10
2018-03-30T17:52:40.155Z,9.50
2018-03-30T17:55:06.996Z,10.07
2018-03-30T17:57:33.864Z,10.50
2018-03-30T18:00:00.675Z,10.93
2018-03-30T18:02:27.609Z,13.67
2018-03-30T18:04:54.455Z,11.60
2018-03-30T18:07:21.267Z,12.67
2018-03-30T18:09:48.909Z,8.13
2018-03-30T18:12:15.844Z,8.13
2018-03-30T18:14:52.507Z,11.03
2018-03-30T18:17:19.420Z,8.17
2018-03-30T18:19:46.292Z,11.93
2018-03-30T18:22:13.149Z,11.10
2018-03-30T18:24:40.113Z,8.23
2018-03-30T18:27:06.990Z,6.83
2018-03-30T18:29:34.590Z,6.33
2018-03-30T18:32:01.430Z,10.70
2018-03-30T18:34:28.251Z,8.90
2018-03-30T18:36:55.199Z,6.43
2018-03-30T18:39:22.722Z,8.17
2018-03-30T18:41:49.641Z,8.17
2018-03-30T18:44:17.278Z,14.40
2018-03-30T18:46:44.146Z,9.60
2018-03-30T18:49:11.097Z,12.63
2018-03-30T18:51:37.995Z,7.63
2018-03-30T18:54:05.540Z,8.30
2018-03-30T18:56:32.388Z,7.07
2018-03-30T18:58:59.714Z,9.47
2018-03-30T19:01:26.602Z,7.03
2018-03-30T19:03:54.243Z,6.43
2018-03-30T19:06:21.139Z,7.83
2018-03-30T19:08:48.543Z,6.70
2018-03-30T19:11:21.212Z,7.33
2018-03-30T19:13:48.123Z,7.80
2018-03-30T19:19:15.380Z,8.07
2018-03-30T19:21:43.454Z,7.57
2018-03-30T19:24:11.727Z,8.20
2018-03-30T19:26:39.815Z,6.57
2018-03-30T19:29:07.979Z,4.60
2018-03-30T19:31:36.154Z,5.80
2018-03-30T19:34:04.234Z,5.43
2018-03-30T19:36:32.303Z,4.33
2018-03-30T19:39:00.520Z,7.07
2018-03-30T19:44:57.873Z,4.70
2018-03-30T19:47:25.836Z,4.40
2018-03-30T19:49:54.012Z,6.90
2018-03-30T19:52:21.465Z,5.00
2018-03-30T19:54:49.686Z,4.37
2018-03-30T19:57:16.803Z,4.23
2018-03-30T19:59:44.807Z,4.00
2018-03-30T20:02:12.228Z,3.33
2018-03-30T20:04:40.403Z,5.97
2018-03-30T20:07:08.469Z,4.30
2018-03-30T20:09:36.661Z,3.80
2018-03-30T20:12:04.724Z,5.90
2018-03-30T20:14:44.939Z,4.80
2018-03-30T20:20:09.288Z,3.40
2018-03-30T20:22:37.165Z,5.00
2018-03-30T20:25:05.344Z,3.40
2018-03-30T20:28:10.697Z,3.33
2018-03-30T20:30:38.865Z,4.77
2018-03-30T20:33:06.874Z,3.03
2018-03-30T20:35:33.881Z,4.73
2018-03-30T20:38:01.882Z,6.47
2018-03-30T20:40:30.038Z,3.77
2018-03-30T20:42:57.772Z,2.90
2018-03-30T20:45:26.086Z,4.80
2018-03-30T20:47:54.145Z,3.83
2018-03-30T20:50:22.218Z,5.33
2018-03-30T20:52:50.397Z,2.83
2018-03-30T20:55:18.262Z,2.63
2018-03-30T20:57:45.810Z,4.33
2018-03-30T21:00:12.573Z,3.67
2018-03-30T21:02:39.319Z,2.80
2018-03-30T21:05:06.874Z,4.23
2018-03-30T21:07:34.428Z,4.97
2018-03-30T21:10:01.911Z,3.40
2018-03-30T21:12:28.709Z,2.63
2018-03-30T21:15:12.344Z,6.00
2018-03-30T21:23:15.866Z,3.57
2018-03-30T21:25:59.400Z,4.63
2018-03-30T21:28:40.194Z,3.60
2018-03-30T21:39:42.608Z,3.80
2018-03-30T21:42:09.989Z,4.73
2018-03-30T21:44:36.556Z,4.03
2018-03-30T21:47:03.978Z,3.87
2018-03-30T21:49:30.463Z,4.77
2018-03-30T21:51:57.680Z,3.17
2018-03-30T21:54:24.284Z,3.03
2018-03-30T21:56:50.805Z,4.23
2018-03-30T21:59:17.355Z,3.07
2018-03-30T22:01:43.938Z,2.83
2018-03-30T22:04:10.429Z,2.73
2018-03-30T22:06:36.890Z,6.97
2018-03-30T22:09:03.388Z,2.13
2018-03-30T22:11:29.955Z,3.40
2018-03-30T22:13:56.489Z,3.10
2018-03-30T22:16:23.772Z,2.70
2018-03-30T22:18:50.228Z,2.17
2018-03-30T22:21:17.402Z,6.10
2018-03-30T22:23:43.878Z,2.17
2018-03-30T22:26:10.341Z,4.23
2018-03-30T22:28:36.786Z,4.37
2018-03-30T22:31:03.962Z,5.00
2018-03-30T22:33:30.432Z,4.63
2018-03-30T22:35:57.176Z,3.60
2018-03-30T22:38:23.618Z,3.07
2018-03-30T22:40:50.137Z,4.03
2018-03-30T22:43:16.593Z,3.77
2018-03-30T22:45:43.064Z,3.10
2018-03-30T22:48:10.226Z,4.20
2018-03-30T22:50:37.425Z,2.70
2018-03-30T22:53:03.846Z,4.80
2018-03-30T22:55:30.294Z,4.73
2018-03-30T22:57:56.804Z,5.97
2018-03-30T23:00:23.313Z,6.43
2018-03-30T23:02:50.520Z,9.90
2018-03-30T23:05:17.008Z,9.57
2018-03-30T23:07:44.234Z,7.20
2018-03-30T23:10:10.695Z,9.13
2018-03-30T23:12:37.895Z,10.87
2018-03-30T23:15:04.369Z,10.20
2018-03-30T23:17:31.584Z,12.10
2018-03-30T23:19:58.054Z,10.50
2018-03-30T23:22:24.665Z,10.17
2018-03-30T23:24:51.205Z,10.03
2018-03-30T23:27:17.742Z,7.87
2018-03-30T23:29:44.283Z,8.77
2018-03-30T23:32:10.790Z,12.93
2018-03-30T23:34:37.352Z,10.13
2018-03-30T23:37:03.994Z,11.63
2018-03-30T23:39:30.632Z,12.63
2018-03-30T23:41:57.274Z,11.20
2018-03-30T23:44:24.603Z,13.00
2018-03-30T23:46:51.268Z,7.03
2018-03-30T23:49:17.808Z,9.20
2018-03-30T23:51:44.445Z,8.90
2018-03-30T23:54:11.087Z,10.73
2018-03-30T23:56:37.625Z,9.00
2018-03-30T23:59:04.262Z,8.97
